Time;durP1;ratioP1;P1;durP2;ratioP2;P2;SDS_P1;SDS_P2;PMS_P1;PMS_P2;Temp;Humidity;BMP_temperature;BMP_pressure;BME280_temperature;BME280_humidity;BME280_pressure;Samples;Min_cycle;Max_cycle;Signal;HPM_P1;HPM_P2
2021/12/21 00:00:02;;;;;;;;;111.75;99.50;;;;;;;;5099429;28;11833;-81
2021/12/21 00:02:27;;;;;;;;;117.00;106.50;;;;;;;;5114075;28;23720;-82
2021/12/21 00:04:53;;;;;;;;;112.75;103.50;;;;;;;;5098071;28;24948;-81
2021/12/21 00:07:18;;;;;;;;;107.75;99.25;;;;;;;;5098609;28;10446;-81
2021/12/21 00:09:43;;;;;;;;;111.00;101.75;;;;;;;;5098343;28;23450;-82
2021/12/21 00:12:10;;;;;;;;;107.50;97.25;;;;;;;;5098160;28;24571;-81
2021/12/21 00:14:51;;;;;;;;;102.50;84.75;;;;;;;;5098305;28;23471;-81
2021/12/21 00:17:32;;;;;;;;;108.25;99.50;;;;;;;;5099024;28;11511;-81
2021/12/21 00:25:17;;;;;;;;;116.00;98.75;;;;;;;;5099224;28;12416;-83
2021/12/21 00:27:44;;;;;;;;;108.75;94.50;;;;;;;;5098535;28;9713;-84
2021/12/21 00:30:09;;;;;;;;;104.00;94.25;;;;;;;;5099291;28;12825;-83
2021/12/21 00:32:35;;;;;;;;;104.50;89.00;;;;;;;;5099095;28;10974;-81
2021/12/21 00:35:00;;;;;;;;;107.75;98.50;;;;;;;;5099100;28;12443;-82
2021/12/21 00:37:27;;;;;;;;;103.25;87.00;;;;;;;;5098794;28;12589;-81
2021/12/21 00:39:53;;;;;;;;;101.75;87.00;;;;;;;;5098193;28;12287;-81
2021/12/21 00:42:18;;;;;;;;;105.75;89.50;;;;;;;;5100425;28;8793;-82
2021/12/21 00:44:43;;;;;;;;;106.75;98.50;;;;;;;;5100325;28;10564;-83
2021/12/21 00:47:09;;;;;;;;;108.00;95.75;;;;;;;;5102784;28;9917;-83
2021/12/21 00:49:36;;;;;;;;;107.25;93.25;;;;;;;;5102539;28;10683;-83
2021/12/21 00:52:01;;;;;;;;;109.25;96.75;;;;;;;;5102534;28;10802;-83
2021/12/21 00:54:26;;;;;;;;;106.75;95.25;;;;;;;;5101961;28;10851;-83
2021/12/21 00:56:51;;;;;;;;;103.25;87.75;;;;;;;;5100692;28;11570;-84
2021/12/21 00:59:17;;;;;;;;;104.50;90.00;;;;;;;;5101689;28;11599;-83
2021/12/21 01:01:42;;;;;;;;;100.25;85.50;;;;;;;;5101728;28;12236;-84
2021/12/21 01:04:15;;;;;;;;;103.75;88.00;;;;;;;;5101519;28;12299;-84
2021/12/21 01:06:57;;;;;;;;;106.75;93.00;;;;;;;;5101000;28;12255;-84
2021/12/21 01:12:04;;;;;;;;;108.00;91.75;;;;;;;;5101690;28;13514;-83
2021/12/21 01:17:30;;;;;;;;;104.50;88.50;;;;;;;;5102260;28;12278;-83
2021/12/21 01:20:12;;;;;;;;;106.00;90.50;;;;;;;;5101649;28;12322;-82
2021/12/21 01:30:22;;;;;;;;;109.00;95.75;;;;;;;;5101188;28;23547;-81
2021/12/21 01:33:06;;;;;;;;;105.25;93.00;;;;;;;;5100564;28;23608;-81
2021/12/21 01:35:37;;;;;;;;;103.75;88.75;;;;;;;;5101540;28;10710;-82
2021/12/21 01:38:18;;;;;;;;;106.50;86.00;;;;;;;;5100719;28;12580;-80
2021/12/21 01:51:04;;;;;;;;;102.00;87.25;;;;;;;;5101663;28;11745;-84
2021/12/21 01:53:29;;;;;;;;;98.00;75.75;;;;;;;;5101362;28;13849;-83
2021/12/21 01:55:56;;;;;;;;;108.00;89.75;;;;;;;;5101502;28;23241;-83
2021/12/21 01:58:21;;;;;;;;;110.25;97.75;;;;;;;;5100595;28;23616;-83
2021/12/21 02:00:47;;;;;;;;;106.75;93.25;;;;;;;;5100533;28;12402;-83
2021/12/21 02:03:13;;;;;;;;;113.50;100.75;;;;;;;;5101857;28;11734;-83
2021/12/21 02:05:38;;;;;;;;;111.00;95.75;;;;;;;;5100898;28;24501;-83
2021/12/21 02:08:04;;;;;;;;;97.25;73.25;;;;;;;;5100945;28;23648;-84
2021/12/21 02:10:29;;;;;;;;;106.50;81.25;;;;;;;;5100784;28;23734;-84
2021/12/21 02:12:55;;;;;;;;;98.25;73.50;;;;;;;;5100781;28;23488;-84
2021/12/21 02:15:20;;;;;;;;;108.00;91.00;;;;;;;;5100324;28;24450;-83
2021/12/21 02:23:04;;;;;;;;;102.50;89.75;;;;;;;;5100599;28;9523;-83
2021/12/21 02:25:40;;;;;;;;;101.00;80.75;;;;;;;;5100427;28;10641;-81
2021/12/21 02:30:44;;;;;;;;;106.50;88.25;;;;;;;;5100448;28;12514;-82
2021/12/21 02:33:09;;;;;;;;;109.75;94.00;;;;;;;;5100964;28;12626;-82
2021/12/21 02:35:35;;;;;;;;;112.50;97.75;;;;;;;;5100507;28;12716;-83
2021/12/21 02:38:00;;;;;;;;;108.00;93.00;;;;;;;;5100536;28;12218;-82
2021/12/21 02:40:25;;;;;;;;;115.50;96.00;;;;;;;;5100439;28;12243;-83
2021/12/21 02:42:51;;;;;;;;;112.00;98.00;;;;;;;;5100441;28;12455;-82
2021/12/21 02:45:16;;;;;;;;;109.00;91.50;;;;;;;;5100184;28;10545;-82
2021/12/21 02:47:42;;;;;;;;;106.00;91.75;;;;;;;;5100015;28;13434;-82
2021/12/21 02:50:07;;;;;;;;;108.00;93.25;;;;;;;;5100420;28;10776;-83
2021/12/21 02:52:33;;;;;;;;;107.00;93.25;;;;;;;;5116343;28;10532;-83
2021/12/21 02:55:00;;;;;;;;;114.75;104.50;;;;;;;;5100133;28;9565;-83
2021/12/21 02:57:28;;;;;;;;;111.50;99.25;;;;;;;;5115753;28;24047;-82
2021/12/21 02:59:53;;;;;;;;;114.75;102.25;;;;;;;;5100235;28;23667;-83
2021/12/21 03:02:19;;;;;;;;;121.25;108.00;;;;;;;;5099981;28;23401;-83
2021/12/21 03:04:45;;;;;;;;;112.75;100.50;;;;;;;;5099191;28;14541;-82
2021/12/21 03:08:00;;;;;;;;;118.50;103.25;;;;;;;;5099972;28;15110;-83
2021/12/21 03:10:02;;;;;;;;;120.25;105.00;;;;;;;;5099246;28;12593;-83
2021/12/21 03:13:53;;;;;;;;;118.00;102.75;;;;;;;;5100242;28;13535;-84
2021/12/21 03:15:22;;;;;;;;;115.75;106.75;;;;;;;;5099750;28;13573;-84
2021/12/21 03:17:47;;;;;;;;;113.00;108.00;;;;;;;;5100525;28;10650;-83
2021/12/21 03:20:12;;;;;;;;;107.25;91.25;;;;;;;;5098364;28;13095;-82
2021/12/21 03:22:38;;;;;;;;;111.50;94.00;;;;;;;;5099615;28;23595;-84
2021/12/21 03:25:03;;;;;;;;;106.75;88.75;;;;;;;;5099599;28;12225;-84
2021/12/21 03:27:28;;;;;;;;;114.75;104.25;;;;;;;;5098685;28;12646;-83
2021/12/21 03:29:54;;;;;;;;;112.50;96.25;;;;;;;;5099165;28;24601;-83
2021/12/21 03:32:19;;;;;;;;;109.00;96.00;;;;;;;;5099235;28;23562;-83
2021/12/21 03:34:44;;;;;;;;;108.25;92.25;;;;;;;;5099468;28;12649;-82
2021/12/21 03:37:12;;;;;;;;;108.00;93.00;;;;;;;;5099346;28;10383;-80
2021/12/21 03:39:42;;;;;;;;;118.50;105.50;;;;;;;;5114983;28;11213;-78
2021/12/21 03:42:08;;;;;;;;;115.00;106.50;;;;;;;;5099438;28;25112;-76
2021/12/21 03:44:33;;;;;;;;;113.75;100.75;;;;;;;;5099706;28;12096;-81
2021/12/21 03:46:59;;;;;;;;;113.50;102.00;;;;;;;;5099829;28;11806;-81
2021/12/21 03:51:57;;;;;;;;;111.75;100.75;;;;;;;;5119488;28;23316;-79
2021/12/21 03:54:23;;;;;;;;;117.25;103.50;;;;;;;;5119524;28;23260;-78
2021/12/21 03:56:50;;;;;;;;;102.50;90.25;;;;;;;;5120420;28;11616;-80
2021/12/21 03:59:16;;;;;;;;;105.00;97.25;;;;;;;;5119408;28;26222;-80
2021/12/21 04:01:41;;;;;;;;;104.25;98.75;;;;;;;;5120320;28;10922;-80
2021/12/21 04:04:08;;;;;;;;;104.75;95.00;;;;;;;;5120109;28;10391;-76
2021/12/21 04:06:33;;;;;;;;;122.00;111.50;;;;;;;;5119158;28;10668;-74
2021/12/21 04:08:59;;;;;;;;;113.50;103.75;;;;;;;;5119115;28;23832;-75
2021/12/21 04:11:24;;;;;;;;;110.00;100.50;;;;;;;;5119171;28;13804;-76
2021/12/21 04:13:50;;;;;;;;;109.25;100.25;;;;;;;;5117357;28;14113;-76
2021/12/21 04:16:15;;;;;;;;;106.50;100.00;;;;;;;;5118312;28;13517;-75
2021/12/21 04:18:40;;;;;;;;;117.25;104.75;;;;;;;;5119573;28;12681;-75
2021/12/21 04:21:08;;;;;;;;;114.50;101.75;;;;;;;;5119470;28;13349;-75
2021/12/21 04:23:34;;;;;;;;;112.25;98.00;;;;;;;;5119268;28;10759;-75
2021/12/21 04:25:59;;;;;;;;;107.50;99.25;;;;;;;;5118452;28;23311;-75
2021/12/21 04:28:24;;;;;;;;;102.50;94.25;;;;;;;;5118825;28;13642;-76
2021/12/21 04:30:50;;;;;;;;;100.75;91.25;;;;;;;;5118973;28;8794;-75
2021/12/21 04:33:15;;;;;;;;;108.75;96.75;;;;;;;;5119539;28;10533;-75
2021/12/21 04:35:40;;;;;;;;;104.25;97.75;;;;;;;;5119955;28;9990;-75
2021/12/21 04:38:20;;;;;;;;;101.50;95.75;;;;;;;;5119487;28;9569;-76
2021/12/21 04:40:48;;;;;;;;;101.75;95.00;;;;;;;;5119339;28;11232;-76
2021/12/21 04:43:13;;;;;;;;;96.25;80.75;;;;;;;;5118736;28;8803;-75
2021/12/21 04:45:39;;;;;;;;;98.75;85.00;;;;;;;;5118369;28;23769;-75
2021/12/21 04:48:04;;;;;;;;;102.25;91.00;;;;;;;;5118550;28;11571;-75
2021/12/21 04:50:30;;;;;;;;;100.75;86.25;;;;;;;;5118214;28;23315;-75
2021/12/21 04:52:55;;;;;;;;;103.00;93.25;;;;;;;;5119355;28;12747;-75
2021/12/21 04:55:20;;;;;;;;;99.00;90.50;;;;;;;;5119094;28;12269;-76
2021/12/21 04:57:46;;;;;;;;;101.25;91.00;;;;;;;;5119162;28;23272;-75
2021/12/21 05:00:12;;;;;;;;;100.00;89.25;;;;;;;;5118510;28;23466;-75
2021/12/21 05:02:37;;;;;;;;;101.25;88.75;;;;;;;;5118840;28;12389;-76
2021/12/21 05:05:03;;;;;;;;;98.00;86.50;;;;;;;;5119016;28;10936;-77
2021/12/21 05:07:31;;;;;;;;;101.50;88.00;;;;;;;;5118546;28;23369;-77
2021/12/21 05:09:58;;;;;;;;;100.50;88.25;;;;;;;;5117134;28;26525;-76
2021/12/21 05:12:24;;;;;;;;;97.25;81.25;;;;;;;;5118815;28;11146;-76
2021/12/21 05:14:50;;;;;;;;;88.50;70.50;;;;;;;;5119092;28;23586;-75
2021/12/21 05:17:15;;;;;;;;;80.50;64.75;;;;;;;;5119023;28;14424;-75
2021/12/21 05:19:41;;;;;;;;;85.25;63.50;;;;;;;;5118329;28;12405;-75
2021/12/21 05:22:06;;;;;;;;;83.25;67.25;;;;;;;;5118553;28;11825;-76
2021/12/21 05:24:32;;;;;;;;;91.50;74.25;;;;;;;;5118801;28;11604;-76
2021/12/21 05:26:57;;;;;;;;;92.00;76.25;;;;;;;;5118992;27;12431;-76
2021/12/21 05:29:23;;;;;;;;;90.75;77.75;;;;;;;;5122330;28;12037;-76
2021/12/21 05:31:49;;;;;;;;;91.00;76.50;;;;;;;;5120647;28;12608;-76
2021/12/21 05:34:14;;;;;;;;;94.00;78.25;;;;;;;;5122943;28;11544;-75
2021/12/21 05:36:39;;;;;;;;;90.75;67.00;;;;;;;;5123020;28;11379;-76
2021/12/21 05:39:14;;;;;;;;;98.75;82.75;;;;;;;;5122390;28;12312;-76
2021/12/21 05:41:47;;;;;;;;;91.75;74.50;;;;;;;;5121988;28;13751;-75
2021/12/21 05:44:13;;;;;;;;;94.75;78.75;;;;;;;;5121576;28;12456;-75
2021/12/21 05:46:38;;;;;;;;;94.25;76.75;;;;;;;;5121584;28;11755;-76
2021/12/21 05:49:04;;;;;;;;;88.50;73.25;;;;;;;;5122176;28;8795;-75
2021/12/21 05:51:29;;;;;;;;;86.00;67.25;;;;;;;;5122124;28;12314;-75
2021/12/21 05:53:54;;;;;;;;;87.50;72.75;;;;;;;;5122370;28;11473;-76
2021/12/21 05:56:19;;;;;;;;;83.50;65.25;;;;;;;;5122265;28;12532;-76
2021/12/21 05:58:45;;;;;;;;;87.50;68.75;;;;;;;;5122150;28;11795;-76
2021/12/21 06:01:10;;;;;;;;;86.25;68.50;;;;;;;;5121769;28;10399;-75
2021/12/21 06:03:35;;;;;;;;;98.75;81.50;;;;;;;;5121949;28;11391;-77
2021/12/21 06:06:01;;;;;;;;;98.00;83.75;;;;;;;;5121737;28;11375;-77
2021/12/21 06:08:26;;;;;;;;;95.00;80.00;;;;;;;;5121581;28;10361;-75
2021/12/21 06:10:54;;;;;;;;;97.75;82.50;;;;;;;;5121605;28;11390;-76
2021/12/21 06:26:28;;;;;;;;;98.75;83.75;;;;;;;;5122079;28;8871;-77
2021/12/21 06:28:54;;;;;;;;;98.75;87.00;;;;;;;;5122078;28;11408;-77
2021/12/21 06:31:19;;;;;;;;;98.50;87.50;;;;;;;;5121687;28;8845;-78
2021/12/21 06:33:45;;;;;;;;;95.00;82.50;;;;;;;;5121830;28;9871;-77
2021/12/21 06:36:10;;;;;;;;;100.00;87.50;;;;;;;;5121125;28;10389;-77
2021/12/21 06:38:36;;;;;;;;;97.25;86.75;;;;;;;;5120855;28;23302;-76
2021/12/21 06:41:01;;;;;;;;;98.25;82.25;;;;;;;;5120441;28;23245;-75
2021/12/21 06:43:27;;;;;;;;;95.75;81.75;;;;;;;;5121170;28;10352;-75
2021/12/21 06:46:18;;;;;;;;;95.25;82.50;;;;;;;;5120785;28;11441;-75
2021/12/21 06:51:42;;;;;;;;;93.50;78.00;;;;;;;;5121382;28;8771;-80
2021/12/21 06:54:07;;;;;;;;;100.00;92.00;;;;;;;;5121456;28;12862;-77
2021/12/21 06:56:33;;;;;;;;;94.25;79.25;;;;;;;;5121361;28;23548;-73
2021/12/21 06:58:58;;;;;;;;;100.00;92.25;;;;;;;;5120754;28;23448;-75
2021/12/21 07:01:26;;;;;;;;;101.50;93.25;;;;;;;;5120611;28;23471;-76
2021/12/21 07:03:51;;;;;;;;;99.75;88.50;;;;;;;;5120752;28;10674;-82
2021/12/21 07:06:18;;;;;;;;;99.00;90.00;;;;;;;;5120899;28;23380;-77
2021/12/21 20:33:09;;;;;;;;;85.50;74.50;;;;;;;;5161471;27;1444950;-75
2021/12/21 20:35:34;;;;;;;;;88.00;69.50;;;;;;;;5199274;27;22438;-71
2021/12/21 20:38:00;;;;;;;;;88.00;66.75;;;;;;;;5197603;27;11430;-68
2021/12/21 20:40:27;;;;;;;;;88.50;69.25;;;;;;;;5177481;27;10035;-71
2021/12/21 20:42:57;;;;;;;;;88.75;71.50;;;;;;;;5177847;27;11913;-70
2021/12/21 20:45:23;;;;;;;;;87.00;69.25;;;;;;;;5196975;27;12330;-70
2021/12/21 20:47:48;;;;;;;;;89.50;70.75;;;;;;;;5196979;27;12674;-72
2021/12/21 20:50:13;;;;;;;;;85.50;68.25;;;;;;;;5197527;27;11376;-70
2021/12/21 20:52:39;;;;;;;;;89.50;74.75;;;;;;;;5199419;27;11882;-70
2021/12/21 20:55:04;;;;;;;;;90.50;76.50;;;;;;;;5198929;27;12636;-70
2021/12/21 20:57:29;;;;;;;;;90.00;73.00;;;;;;;;5198993;27;13641;-70
2021/12/21 20:59:55;;;;;;;;;93.50;80.25;;;;;;;;5199057;27;10836;-71
2021/12/21 21:02:20;;;;;;;;;87.75;71.75;;;;;;;;5179051;27;12538;-72
2021/12/21 21:04:45;;;;;;;;;111.25;97.50;;;;;;;;5197003;27;13572;-72
2021/12/21 21:07:11;;;;;;;;;102.75;92.25;;;;;;;;5196749;27;23616;-70
2021/12/21 21:09:37;;;;;;;;;113.75;103.00;;;;;;;;5197566;27;12654;-72
2021/12/21 21:12:03;;;;;;;;;113.75;104.25;;;;;;;;5198119;27;24589;-70
2021/12/21 21:14:29;;;;;;;;;98.50;91.50;;;;;;;;5198683;27;9020;-71
2021/12/21 21:16:54;;;;;;;;;108.25;96.50;;;;;;;;5197863;27;24414;-70
2021/12/21 21:19:20;;;;;;;;;94.00;82.50;;;;;;;;5198295;27;23403;-74
2021/12/21 21:21:45;;;;;;;;;98.25;89.00;;;;;;;;5198611;27;23266;-73
2021/12/21 21:24:10;;;;;;;;;105.75;94.75;;;;;;;;5197569;27;11629;-73
2021/12/21 21:26:35;;;;;;;;;108.00;95.75;;;;;;;;5196569;27;23258;-73
2021/12/21 21:29:01;;;;;;;;;92.25;79.25;;;;;;;;5177256;27;12677;-73
2021/12/21 21:31:26;;;;;;;;;100.75;93.75;;;;;;;;5197033;27;23196;-72
2021/12/21 21:33:52;;;;;;;;;103.25;99.50;;;;;;;;5196936;27;24472;-72
2021/12/21 21:36:20;;;;;;;;;98.25;88.00;;;;;;;;5195614;27;10412;-72
2021/12/21 21:38:45;;;;;;;;;112.25;101.25;;;;;;;;5190713;27;24531;-73
2021/12/21 21:41:11;;;;;;;;;122.00;112.75;;;;;;;;5176625;27;27053;-73
2021/12/21 21:43:36;;;;;;;;;119.50;112.00;;;;;;;;5188219;27;12778;-72
2021/12/21 21:46:02;;;;;;;;;117.75;110.50;;;;;;;;5163330;27;15435;-71
2021/12/21 21:48:31;;;;;;;;;104.50;93.75;;;;;;;;5182958;27;11682;-73
2021/12/21 21:50:57;;;;;;;;;102.50;95.50;;;;;;;;5163643;27;25483;-73
2021/12/21 21:56:00;;;;;;;;;107.25;97.00;;;;;;;;5182449;27;10458;-73
2021/12/21 21:58:25;;;;;;;;;105.00;92.25;;;;;;;;5182075;27;10455;-73
2021/12/21 22:00:51;;;;;;;;;104.50;93.75;;;;;;;;5182782;27;10618;-73
2021/12/21 22:03:16;;;;;;;;;110.50;101.25;;;;;;;;5182720;27;10380;-73
2021/12/21 22:05:42;;;;;;;;;99.00;87.25;;;;;;;;5182239;27;23349;-73
2021/12/21 22:08:07;;;;;;;;;106.75;98.75;;;;;;;;5178214;27;25901;-73
2021/12/21 22:10:32;;;;;;;;;104.50;92.50;;;;;;;;5180570;27;23623;-73
2021/12/21 22:12:58;;;;;;;;;86.25;68.50;;;;;;;;5182189;27;10628;-74
2021/12/21 22:15:23;;;;;;;;;92.25;82.50;;;;;;;;5182005;27;23502;-74
2021/12/21 22:17:48;;;;;;;;;90.50;74.00;;;;;;;;5181823;27;10420;-73
2021/12/21 22:20:14;;;;;;;;;83.00;66.50;;;;;;;;5182134;27;12387;-74
2021/12/21 22:22:39;;;;;;;;;84.00;65.00;;;;;;;;5181413;27;13299;-73
2021/12/21 22:25:05;;;;;;;;;79.75;62.25;;;;;;;;5181670;27;11399;-74
2021/12/21 22:27:30;;;;;;;;;77.75;60.50;;;;;;;;5181494;27;13236;-74
2021/12/21 22:30:01;;;;;;;;;83.75;65.00;;;;;;;;5182659;27;12073;-73
2021/12/21 22:32:27;;;;;;;;;83.25;65.00;;;;;;;;5181217;27;13471;-74
2021/12/21 22:34:52;;;;;;;;;80.75;65.00;;;;;;;;5181789;27;8813;-75
2021/12/21 22:37:17;;;;;;;;;85.00;66.00;;;;;;;;5182793;27;8818;-73
2021/12/21 22:39:44;;;;;;;;;85.00;65.50;;;;;;;;5179283;27;11671;-73
2021/12/21 22:42:09;;;;;;;;;73.00;57.50;;;;;;;;5181302;27;9035;-72
2021/12/21 22:44:35;;;;;;;;;76.75;59.50;;;;;;;;5183764;27;10439;-80
2021/12/21 22:47:00;;;;;;;;;77.00;59.25;;;;;;;;5182915;27;10629;-82
2021/12/21 22:49:25;;;;;;;;;78.50;62.00;;;;;;;;5183674;27;11450;-80
2021/12/21 22:51:52;;;;;;;;;72.50;59.00;;;;;;;;5183377;27;12737;-81
2021/12/21 22:54:17;;;;;;;;;77.25;59.50;;;;;;;;5183095;27;9763;-80
2021/12/21 22:56:43;;;;;;;;;77.00;62.00;;;;;;;;5183388;27;11363;-80
2021/12/21 22:59:08;;;;;;;;;76.75;59.00;;;;;;;;5184696;27;12544;-79
2021/12/21 23:01:35;;;;;;;;;76.50;61.50;;;;;;;;5182042;27;12066;-81
2021/12/21 23:04:00;;;;;;;;;78.25;62.25;;;;;;;;5180671;27;12256;-80
2021/12/21 23:06:25;;;;;;;;;78.75;63.00;;;;;;;;5181426;27;11388;-81
2021/12/21 23:08:51;;;;;;;;;77.25;62.00;;;;;;;;5181137;27;10915;-80
2021/12/21 23:11:16;;;;;;;;;58.75;44.25;;;;;;;;5181796;27;9555;-80
2021/12/21 23:13:46;;;;;;;;;75.00;58.50;;;;;;;;5180882;27;13451;-80
2021/12/21 23:16:11;;;;;;;;;83.25;65.50;;;;;;;;5181254;27;13375;-77
2021/12/21 23:18:39;;;;;;;;;85.00;65.50;;;;;;;;5181587;27;12199;-76
2021/12/21 23:21:05;;;;;;;;;73.50;59.50;;;;;;;;5182291;27;8984;-78
2021/12/21 23:23:30;;;;;;;;;77.25;62.00;;;;;;;;5180548;27;12737;-78
2021/12/21 23:25:56;;;;;;;;;76.75;63.00;;;;;;;;5180651;27;12192;-80
2021/12/21 23:28:22;;;;;;;;;81.25;62.00;;;;;;;;5181061;27;9928;-79
2021/12/21 23:30:47;;;;;;;;;82.25;64.50;;;;;;;;5163064;27;11900;-79
2021/12/21 23:33:14;;;;;;;;;84.00;64.50;;;;;;;;5181141;27;11651;-78
2021/12/21 23:35:39;;;;;;;;;78.75;62.75;;;;;;;;5182125;27;10137;-79
2021/12/21 23:38:10;;;;;;;;;82.00;62.75;;;;;;;;5182253;27;13378;-78
2021/12/21 23:40:35;;;;;;;;;77.00;60.75;;;;;;;;5182545;27;10217;-80
2021/12/21 23:43:01;;;;;;;;;68.50;54.50;;;;;;;;5182560;27;10347;-81
2021/12/21 23:45:26;;;;;;;;;76.25;59.25;;;;;;;;5182764;27;13617;-81
2021/12/21 23:47:51;;;;;;;;;77.50;59.50;;;;;;;;5192640;22;13264;-79
2021/12/21 23:50:17;;;;;;;;;79.75;64.00;;;;;;;;5099975;28;12907;-81
2021/12/21 23:52:42;;;;;;;;;79.75;60.00;;;;;;;;5081658;28;12634;-81
2021/12/21 23:55:09;;;;;;;;;74.00;59.00;;;;;;;;5100635;28;8810;-80
2021/12/21 23:57:34;;;;;;;;;75.75;60.25;;;;;;;;5100566;28;11678;-80
2021/12/21 23:59:59;;;;;;;;;82.00;65.00;;;;;;;;5100952;28;13540;-80
